^^
Station Historical Data
Daily Summary for March 7, 2017 Units:  Metric    English   Both
« Previous Day
Next Day »
Daily Weekly Monthly Yearly Custom
  High: Low: Average:
Temperature: 38.7 °C 20.8 °C 29.1 °C
Dew Point: 9.8 °C -0.2 °C 6.9 °C
Humidity: 44% 9% 27%
Wind Speed: 14.3km/h 0km/h 1.3km/h
Wind Gust: 24.1km/h - -
Wind- - ESE
Pressure: 1008.7 hPa 1003.6 hPa -
Precipitation: 0 mm    
Historical Graphs
 
 
Tabular Data for March 7, 2017
Time Temperature Dew Point Pressure Wind Wind Speed Wind Gust Humidity Rainfall Rate (Hourly) solar Conditions
00:02 29.3 °C 7.8 °C 1008.4 hPa SSE 9.7 km/h 12.9 km/h 26% 0 mm 0.0 W/m2
00:07 29.3 °C 7.8 °C 1008.4 hPa SSE 4.7 km/h 8 km/h 26% 0 mm 0.0 W/m2
00:12 29.1 °C 7.6 °C 1008.4 hPa Calm     26% 0 mm 0.0 W/m2
00:17 28.7 °C 7.9 °C 1008.4 hPa Calm     27% 0 mm 0.0 W/m2
00:23 28.3 °C 7.5 °C 1008.4 hPa Calm     27% 0 mm 0.0 W/m2
00:28 27.9 °C 7.7 °C 1008.4 hPa Calm     28% 0 mm 0.0 W/m2
00:33 27.6 °C 8 °C 1008.4 hPa Calm     29% 0 mm 0.0 W/m2
00:38 27.2 °C 7.6 °C 1008.4 hPa Calm     29% 0 mm 0.0 W/m2
00:43 26.9 °C 7.4 °C 1008.4 hPa Calm     29% 0 mm 0.0 W/m2
00:49 26.6 °C 7.6 °C 1008.4 hPa Calm     30% 0 mm 0.0 W/m2
00:54 26.2 °C 7.7 °C 1008.4 hPa Calm     31% 0 mm 0.0 W/m2
00:59 26.1 °C 7.6 °C 1008.4 hPa Calm     31% 0 mm 0.0 W/m2
01:05 26.1 °C 7.6 °C 1008.4 hPa Calm     31% 0 mm 0.0 W/m2
01:11 26.1 °C 7.6 °C 1008.4 hPa Calm     31% 0 mm 0.0 W/m2
01:16 25.9 °C 7.5 °C 1008.4 hPa Calm     31% 0 mm 0.0 W/m2
01:21 25.8 °C 7.9 °C 1008.4 hPa SSE 4.7 km/h 8 km/h 32% 0 mm 0.0 W/m2
01:26 25.9 °C 7.9 °C 1008.4 hPa Calm   4.8 km/h 32% 0 mm 0.0 W/m2
01:36 25.9 °C 7.9 °C 1008.4 hPa Calm     32% 0 mm 0.0 W/m2
01:37 25.9 °C 7.9 °C 1008.4 hPa Calm     32% 0 mm 0.0 W/m2
01:51 25.4 °C 8 °C 1008 hPa Calm     33% 0 mm 0.0 W/m2
01:57 25.3 °C 7.9 °C 1008 hPa Calm     33% 0 mm 0.0 W/m2
02:02 25.1 °C 8.1 °C 1008 hPa Calm     34% 0 mm 0.0 W/m2
02:08 24.9 °C 8 °C 1008 hPa Calm     34% 0 mm 0.0 W/m2
02:13 24.8 °C 7.9 °C 1008 hPa Calm     34% 0 mm 0.0 W/m2
02:18 24.7 °C 7.8 °C 1008 hPa Calm     34% 0 mm 0.0 W/m2
02:23 25.2 °C 7.8 °C 1008 hPa Calm     33% 0 mm 0.0 W/m2
02:29 25.4 °C 8 °C 1008 hPa Calm     33% 0 mm 0.0 W/m2
02:34 25.5 °C 8 °C 1008 hPa Calm     33% 0 mm 0.0 W/m2
02:40 25.2 °C 8.2 °C 1008 hPa Calm     34% 0 mm 0.0 W/m2
02:45 24.9 °C 8 °C 1007.7 hPa Calm     34% 0 mm 0.0 W/m2
02:50 24.8 °C 8.3 °C 1007.7 hPa Calm     35% 0 mm 0.0 W/m2
03:00 24.3 °C 7.4 °C 1007.7 hPa Calm     34% 0 mm 0.0 W/m2
03:16 23.5 °C 7.6 °C 1007.3 hPa Calm     36% 0 mm 0.0 W/m2
03:22 23.2 °C 7.3 °C 1007.3 hPa Calm     36% 0 mm 0.0 W/m2
03:27 22.9 °C 7 °C 1007.3 hPa Calm     36% 0 mm 0.0 W/m2
03:32 22.6 °C 7.2 °C 1007.3 hPa Calm     37% 0 mm 0.0 W/m2
03:42 22.2 °C 6.8 °C 1007.3 hPa Calm     37% 0 mm 0.0 W/m2
03:52 22 °C 7.4 °C 1007.3 hPa Calm     39% 0 mm 0.0 W/m2
03:58 22.3 °C 7.3 °C 1007.3 hPa Calm     38% 0 mm 0.0 W/m2
04:08 23.6 °C 7.7 °C 1007.3 hPa Calm     36% 0 mm 0.0 W/m2
04:13 23.9 °C 7.1 °C 1007.3 hPa Calm     34% 0 mm 0.0 W/m2
04:18 24.1 °C 7.7 °C 1007.3 hPa Calm     35% 0 mm 0.0 W/m2
04:28 24.3 °C 7.9 °C 1007.3 hPa Calm     35% 0 mm 0.0 W/m2
04:33 24.2 °C 7.3 °C 1007.3 hPa Calm     34% 0 mm 0.0 W/m2
04:48 24.4 °C 7.9 °C 1007.3 hPa Calm     35% 0 mm 0.0 W/m2
05:04 24.3 °C 8.3 °C 1007 hPa Calm     36% 0 mm 0.0 W/m2
05:15 24 °C 8 °C 1007.3 hPa Calm     36% 0 mm 0.0 W/m2
05:26 24.1 °C 8.9 °C 1007.3 hPa Calm     38% 0 mm 0.0 W/m2
05:31 24 °C 8.4 °C 1007.3 hPa Calm     37% 0 mm 0.0 W/m2
05:36 23.8 °C 8.2 °C 1007.3 hPa Calm     37% 0 mm 0.0 W/m2
05:41 23.6 °C 8.4 °C 1007.3 hPa Calm     38% 0 mm 0.0 W/m2
05:46 23.2 °C 8.5 °C 1007.3 hPa Calm     39% 0 mm 0.0 W/m2
05:52 22.9 °C 8.6 °C 1007.3 hPa Calm     40% 0 mm 0.0 W/m2
06:03 22.2 °C 8 °C 1007.3 hPa Calm     40% 0 mm 0.0 W/m2
06:13 21.8 °C 8.3 °C 1007.3 hPa Calm     42% 0 mm 0.0 W/m2
06:19 21.6 °C 8.5 °C 1007.3 hPa Calm     43% 0 mm 0.0 W/m2
06:25 21.3 °C 8.6 °C 1007.7 hPa Calm     44% 0 mm 0.0 W/m2
06:27 21.1 °C 8.4 °C 1007.7 hPa Calm     44% 0 mm 0.0 W/m2
06:38 21.1 °C 7.7 °C 1008 hPa Calm     42% 0 mm 0.0 W/m2
06:59 20.8 °C 6.3 °C 1008 hPa Calm     39% 0 mm 9.0 W/m2
07:09 20.8 °C 6.7 °C 1008.4 hPa Calm     40% 0 mm 16.0 W/m2
07:19 21.6 °C 7.8 °C 1008.4 hPa Calm     41% 0 mm 37.0 W/m2
07:29 22.3 °C 8.4 °C 1008.4 hPa Calm     41% 0 mm 69.0 W/m2
07:34 23.3 °C 8.6 °C 1008.7 hPa Calm     39% 0 mm 107.0 W/m2
07:49 24.4 °C 7.9 °C 1008.7 hPa Calm     35% 0 mm 153.0 W/m2
07:58 25.7 °C 7.8 °C 1008.7 hPa Calm     32% 0 mm 195.0 W/m2
08:05 26.3 °C 7.8 °C 1008.7 hPa Calm     31% 0 mm 243.0 W/m2
08:13 26.8 °C 7.8 °C 1008.7 hPa Calm     30% 0 mm 264.0 W/m2
08:19 27.6 °C 7.4 °C 1008.7 hPa Calm     28% 0 mm 283.0 W/m2
08:30 28.7 °C 7.3 °C 1008.7 hPa Calm     26% 0 mm 320.0 W/m2
08:36 29.3 °C 6.6 °C 1008.7 hPa Calm     24% 0 mm 357.0 W/m2
08:50 29.7 °C 6.4 °C 1008.7 hPa Calm     23% 0 mm 396.0 W/m2
08:51 30 °C 6.6 °C 1008.7 hPa Calm     23% 0 mm 415.0 W/m2
09:02 30.6 °C 6.5 °C 1008.4 hPa Calm     22% 0 mm 448.0 W/m2
09:14 31.3 °C 6.4 °C 1008.4 hPa Calm     21% 0 mm 485.0 W/m2
09:46 32.1 °C 6.3 °C 1008.7 hPa Calm   11.3 km/h 20% 0 mm 589.0 W/m2
10:05 32.6 °C 6.7 °C 1008.7 hPa SSE 6.4 km/h 8 km/h 20% 0 mm 649.0 W/m2
10:15 32.8 °C 6.1 °C 1008.7 hPa Calm     19% 0 mm 673.0 W/m2
10:24 33.1 °C 5.6 °C 1008.7 hPa Calm   6.4 km/h 18% 0 mm 703.0 W/m2
10:36 33.1 °C 5.6 °C 1008.4 hPa Calm     18% 0 mm 717.0 W/m2
11:15 34.4 °C 8.9 °C 1008 hPa SSE 7.9 km/h 9.7 km/h 21% 0 mm 814.0 W/m2
11:20 34.6 °C 9.8 °C 1008 hPa SSE 1.4 km/h 14.5 km/h 22% 0 mm 821.0 W/m2
11:30 34.7 °C 9.2 °C 1008 hPa Calm   14.5 km/h 21% 0 mm 842.0 W/m2
11:45 35.3 °C 9.7 °C 1007.7 hPa SSE 7.9 km/h 14.5 km/h 21% 0 mm 856.0 W/m2
12:00 35.3 °C 8.9 °C 1007.3 hPa SSE 9.7 km/h 11.3 km/h 20% 0 mm 881.0 W/m2
12:10 35.6 °C 8.4 °C 1007.3 hPa South 3.2 km/h 12.9 km/h 19% 0 mm 896.0 W/m2
12:21 35.9 °C 6.1 °C 1007 hPa Calm   17.7 km/h 16% 0 mm 896.0 W/m2
12:28 35.9 °C 6.1 °C 1007 hPa Calm   6.4 km/h 16% 0 mm 904.0 W/m2
12:31 35.8 °C 7 °C 1007 hPa South 1.4 km/h 8 km/h 17% 0 mm 907.0 W/m2
12:36 36.1 °C 5.4 °C 1006.7 hPa Calm   3.2 km/h 15% 0 mm 909.0 W/m2
12:45 36.6 °C 6.7 °C 1006.7 hPa SSE 6.4 km/h 11.3 km/h 16% 0 mm 911.0 W/m2
12:51 36.8 °C 6.9 °C 1006.7 hPa Calm   12.9 km/h 16% 0 mm 912.0 W/m2
13:01 36.6 °C 6.7 °C 1006.3 hPa Calm     16% 0 mm 911.0 W/m2
13:17 36.5 °C 6.6 °C 1006 hPa Calm   4.8 km/h 16% 0 mm 905.0 W/m2
13:28 36.5 °C 6.6 °C 1006 hPa Calm     16% 0 mm 909.0 W/m2
13:38 37.4 °C 5.4 °C 1005.6 hPa ESE 11.1 km/h 24.1 km/h 14% 0 mm 882.0 W/m2
13:55 38.1 °C 4.9 °C 1005.6 hPa Calm   9.7 km/h 13% 0 mm 891.0 W/m2
14:03 37.6 °C 4.5 °C 1005.6 hPa East 6.4 km/h 22.5 km/h 13% 0 mm 875.0 W/m2
14:20 37.8 °C 4.7 °C 1005.6 hPa East 4.7 km/h 11.3 km/h 13% 0 mm 863.0 W/m2
14:34 38 °C 4.8 °C 1005 hPa ENE 1.4 km/h 4.8 km/h 13% 0 mm 837.0 W/m2
14:46 37.8 °C 5.7 °C 1005 hPa ENE 9.7 km/h 9.7 km/h 14% 0 mm 826.0 W/m2
15:00 37.8 °C 5.7 °C 1005 hPa ENE 7.9 km/h 11.3 km/h 14% 0 mm 795.0 W/m2
15:09 38.3 °C 5 °C 1004.6 hPa ENE 7.9 km/h 16.1 km/h 13% 0 mm 765.0 W/m2
15:31 38.4 °C 5.1 °C 1004.3 hPa ENE 6.4 km/h 17.7 km/h 13% 0 mm 726.0 W/m2
15:46 38.2 °C 5 °C 1003.9 hPa Calm   8 km/h 13% 0 mm 689.0 W/m2
15:55 38.2 °C 5 °C 1003.9 hPa Calm   17.7 km/h 13% 0 mm 645.0 W/m2
16:10 38.3 °C 3.9 °C 1003.9 hPa Calm   11.3 km/h 12% 0 mm 603.0 W/m2
16:25 38.7 °C 3 °C 1003.9 hPa ENE 7.9 km/h 8 km/h 11% 0 mm 561.0 W/m2
16:40 38.2 °C 2.6 °C 1003.9 hPa Calm   9.7 km/h 11% 0 mm 512.0 W/m2
16:56 38.6 °C 1.6 °C 1003.6 hPa ENE 14.3 km/h 14.5 km/h 10% 0 mm 473.0 W/m2
17:11 38.2 °C -0.2 °C 1003.6 hPa Calm   4.8 km/h 9% 0 mm 69.0 W/m2
17:26 37.8 °C 1 °C 1003.6 hPa Calm     10% 0 mm 352.0 W/m2
17:36 37.8 °C 1 °C 1003.6 hPa Calm     10% 0 mm 316.0 W/m2
17:46 38.4 °C -0.1 °C 1003.6 hPa ESE 9.7 km/h 12.9 km/h 9% 0 mm 276.0 W/m2
17:56 38.2 °C 1.3 °C 1003.6 hPa ESE 3.2 km/h 17.7 km/h 10% 0 mm 241.0 W/m2
Canyon Roadhouse, Fishriver Canyon, Namibia
Compliments of Weather Underground - 2.25 mb